Time;durP1;ratioP1;P1;durP2;ratioP2;P2;SDS_P1;SDS_P2;PMS_P1;PMS_P2;Temp;Humidity;BMP_temperature;BMP_pressure;BME280_temperature;BME280_humidity;BME280_pressure;Samples;Min_cycle;Max_cycle;Signal;HPM_P1;HPM_P2
2022/06/08 00:01:37;;;;;;;6.93;3.85;;;11.50;99.90;;;;;;4864536;29;20045;-88
2022/06/08 00:04:05;;;;;;;6.57;3.30;;;11.40;99.90;;;;;;4848983;29;20096;-88
2022/06/08 00:06:31;;;;;;;5.80;3.75;;;11.40;99.90;;;;;;4880412;29;20075;-88
2022/06/08 00:08:57;;;;;;;6.45;3.72;;;11.40;99.90;;;;;;4875640;29;20084;-88
2022/06/08 00:11:23;;;;;;;6.20;3.40;;;11.40;99.90;;;;;;4864936;29;20080;-88
2022/06/08 00:13:49;;;;;;;5.72;3.35;;;11.40;99.90;;;;;;4849155;29;20041;-88
2022/06/08 00:16:15;;;;;;;7.57;4.80;;;11.50;99.90;;;;;;4864326;29;20135;-88
2022/06/08 00:18:43;;;;;;;8.02;4.20;;;11.40;99.90;;;;;;4848421;29;20052;-88
2022/06/08 00:21:10;;;;;;;7.65;4.32;;;11.40;99.90;;;;;;4833316;29;20053;-88
2022/06/08 00:23:36;;;;;;;7.32;4.03;;;11.40;99.90;;;;;;4849450;29;20165;-88
2022/06/08 00:26:02;;;;;;;7.80;4.10;;;11.40;99.90;;;;;;4864532;29;20044;-88
2022/06/08 00:28:28;;;;;;;6.57;4.05;;;11.40;99.90;;;;;;4847199;29;20040;-88
2022/06/08 00:30:54;;;;;;;6.68;3.90;;;11.50;99.90;;;;;;4855452;29;20449;-88
2022/06/08 00:33:19;;;;;;;9.23;6.30;;;11.40;99.90;;;;;;4859980;29;20041;-88
2022/06/08 00:35:45;;;;;;;7.68;4.55;;;11.50;99.90;;;;;;4848656;29;20044;-88
2022/06/08 00:38:11;;;;;;;8.25;4.72;;;11.40;99.90;;;;;;4864030;29;20051;-88
2022/06/08 00:41:13;;;;;;;7.57;4.63;;;11.30;99.90;;;;;;4851145;29;20080;-88
2022/06/08 00:43:39;;;;;;;7.25;4.20;;;11.30;99.90;;;;;;4863672;29;20044;-88
2022/06/08 00:46:06;;;;;;;6.60;4.00;;;11.30;99.90;;;;;;4848662;29;20044;-88
2022/06/08 00:48:38;;;;;;;6.82;4.28;;;11.30;99.90;;;;;;4847866;29;20504;-88
2022/06/08 00:51:04;;;;;;;7.22;4.55;;;11.30;99.90;;;;;;4848639;29;20049;-88
2022/06/08 00:53:48;;;;;;;8.82;5.68;;;11.30;99.90;;;;;;4847919;29;20041;-88
2022/06/08 00:56:18;;;;;;;9.20;4.43;;;11.30;99.90;;;;;;4848265;29;20464;-88
2022/06/08 00:58:45;;;;;;;7.65;4.90;;;11.30;99.90;;;;;;4848200;29;20098;-88
2022/06/08 01:01:11;;;;;;;9.45;5.15;;;11.20;99.90;;;;;;4848646;29;20518;-88
2022/06/08 01:03:38;;;;;;;6.50;4.25;;;11.30;99.90;;;;;;4863166;29;20056;-88
2022/06/08 01:06:20;;;;;;;8.80;4.70;;;11.30;99.90;;;;;;4863707;29;20040;-88
2022/06/08 01:08:49;;;;;;;9.40;4.63;;;11.30;99.90;;;;;;4848415;29;20068;-88
2022/06/08 01:11:33;;;;;;;7.90;5.25;;;11.30;99.90;;;;;;4863669;29;20041;-88
2022/06/08 01:14:03;;;;;;;12.32;7.35;;;11.40;99.90;;;;;;4847608;29;20041;-88
2022/06/08 01:16:31;;;;;;;10.25;7.18;;;11.40;99.90;;;;;;4848102;29;20069;-88
2022/06/08 01:18:57;;;;;;;11.88;7.90;;;11.50;99.90;;;;;;4847264;29;20145;-88
2022/06/08 01:21:22;;;;;;;8.43;5.15;;;11.40;99.90;;;;;;4849901;29;20501;-88
2022/06/08 01:24:03;;;;;;;9.70;5.72;;;11.40;99.90;;;;;;4863284;29;20109;-88
2022/06/08 01:26:39;;;;;;;12.65;9.10;;;11.40;99.90;;;;;;4862962;29;20048;-88
2022/06/08 01:29:32;;;;;;;9.63;6.93;;;11.50;99.90;;;;;;4873139;29;20073;-88
2022/06/08 01:31:58;;;;;;;8.95;6.60;;;11.50;99.90;;;;;;4848810;29;20041;-88
2022/06/08 01:34:38;;;;;;;10.88;7.30;;;11.50;99.90;;;;;;4870678;29;20048;-88
2022/06/08 01:37:12;;;;;;;10.43;7.65;;;11.50;99.90;;;;;;4847344;29;20045;-88
2022/06/08 01:39:58;;;;;;;9.75;6.75;;;11.50;99.90;;;;;;4862904;29;20041;-88
2022/06/08 01:42:26;;;;;;;10.00;6.65;;;11.60;99.90;;;;;;4845977;29;20116;-88
2022/06/08 01:48:24;;;;;;;9.73;6.95;;;11.60;99.90;;;;;;4861661;29;20141;-88
2022/06/08 01:51:29;;;;;;;12.13;7.40;;;11.60;99.90;;;;;;4850073;29;20069;-88
2022/06/08 01:54:04;;;;;;;16.65;11.18;;;11.60;99.90;;;;;;4847229;29;20081;-88
2022/06/08 01:56:30;;;;;;;18.50;13.50;;;11.70;99.90;;;;;;4878043;29;20063;-88
2022/06/08 01:59:17;;;;;;;19.02;14.65;;;11.70;99.90;;;;;;4862247;29;20045;-88
2022/06/08 02:02:06;;;;;;;19.42;13.82;;;11.80;99.90;;;;;;4862894;29;20492;-88
2022/06/08 02:04:35;;;;;;;21.63;14.82;;;11.80;99.90;;;;;;4816595;29;20045;-88
2022/06/08 02:07:00;;;;;;;19.25;13.40;;;11.80;99.90;;;;;;4863149;29;20392;-88
2022/06/08 02:09:38;;;;;;;22.35;15.05;;;11.80;99.90;;;;;;4877578;29;20049;-88
2022/06/08 02:12:07;;;;;;;23.48;16.92;;;11.70;99.90;;;;;;4871464;29;20460;-88
2022/06/08 02:14:46;;;;;;;18.58;14.50;;;11.70;99.90;;;;;;4847492;29;20404;-88
2022/06/08 02:17:29;;;;;;;22.75;16.40;;;11.70;99.90;;;;;;4862988;29;20568;-88
2022/06/08 02:20:05;;;;;;;24.48;17.80;;;11.80;99.90;;;;;;4850015;29;20041;-88
2022/06/08 02:22:46;;;;;;;22.90;17.00;;;11.70;99.90;;;;;;4860278;29;20375;-88
2022/06/08 02:25:17;;;;;;;23.65;17.67;;;11.70;99.90;;;;;;4860260;29;20144;-88
2022/06/08 02:28:03;;;;;;;25.13;17.90;;;11.80;99.90;;;;;;4846810;29;20041;-88
2022/06/08 02:30:33;;;;;;;26.67;19.00;;;11.80;99.90;;;;;;4846929;29;20056;-88
2022/06/08 02:35:59;;;;;;;24.48;19.67;;;11.90;99.90;;;;;;4877811;29;20052;-88
2022/06/08 02:38:32;;;;;;;20.70;16.90;;;12.00;99.90;;;;;;4861833;29;20045;-88
2022/06/08 02:41:01;;;;;;;24.05;18.08;;;11.90;99.90;;;;;;4846602;29;20049;-88
2022/06/08 02:43:44;;;;;;;28.90;19.27;;;11.90;99.90;;;;;;4852950;29;20194;-89
2022/06/08 02:46:19;;;;;;;23.45;17.77;;;11.90;99.90;;;;;;4847192;29;20073;-89
2022/06/08 02:48:45;;;;;;;23.05;17.67;;;11.90;99.90;;;;;;4845679;29;20053;-89
2022/06/08 02:51:11;;;;;;;30.80;21.42;;;12.00;99.90;;;;;;4831641;29;20154;-88
2022/06/08 02:53:56;;;;;;;24.42;19.23;;;12.00;99.90;;;;;;4855788;29;20055;-88
2022/06/08 02:56:40;;;;;;;26.75;19.90;;;12.00;99.90;;;;;;4840030;29;20075;-88
2022/06/08 02:59:22;;;;;;;27.20;21.20;;;12.00;99.90;;;;;;4849623;29;20049;-88
2022/06/08 03:01:56;;;;;;;27.75;21.00;;;12.00;99.90;;;;;;4850474;29;20041;-89
2022/06/08 03:04:26;;;;;;;27.45;21.77;;;12.00;99.90;;;;;;4849403;29;20112;-88
2022/06/08 03:06:57;;;;;;;30.10;22.58;;;12.00;99.90;;;;;;4850654;29;20519;-88
2022/06/08 03:09:25;;;;;;;30.95;21.05;;;12.10;99.90;;;;;;4850114;29;20413;-88
2022/06/08 03:11:56;;;;;;;27.23;20.90;;;12.10;99.90;;;;;;4834938;29;20048;-88
2022/06/08 03:14:22;;;;;;;25.70;20.80;;;12.20;99.90;;;;;;4848761;29;20497;-88
2022/06/08 03:16:59;;;;;;;28.08;20.88;;;12.30;99.90;;;;;;4838978;29;20044;-88
2022/06/08 03:19:27;;;;;;;28.98;22.38;;;12.30;99.90;;;;;;4849055;29;20412;-88
2022/06/08 03:21:54;;;;;;;27.45;22.17;;;12.30;99.90;;;;;;4850119;29;20355;-88
2022/06/08 03:24:21;;;;;;;30.23;22.05;;;12.30;99.90;;;;;;4835237;29;20044;-89
2022/06/08 03:26:55;;;;;;;31.45;21.77;;;12.30;99.90;;;;;;4837437;29;20158;-88
2022/06/08 03:29:22;;;;;;;27.25;22.02;;;12.30;99.90;;;;;;4865220;29;20037;-88
2022/06/08 03:31:49;;;;;;;29.75;21.75;;;12.30;99.90;;;;;;4850104;29;20048;-88
2022/06/08 03:34:15;;;;;;;28.50;22.67;;;12.30;99.90;;;;;;4849667;29;20041;-88
2022/06/08 03:36:42;;;;;;;27.70;21.15;;;12.20;99.90;;;;;;4819672;29;20577;-88
2022/06/08 03:39:08;;;;;;;29.83;21.33;;;12.20;99.90;;;;;;4861782;29;20101;-88
2022/06/08 03:41:35;;;;;;;27.60;20.95;;;12.20;99.90;;;;;;4874694;29;20525;-88
2022/06/08 03:44:01;;;;;;;26.52;21.55;;;12.20;99.90;;;;;;4861021;29;20129;-88
2022/06/08 03:46:28;;;;;;;28.00;21.38;;;12.30;99.90;;;;;;4838409;29;20105;-88
2022/06/08 03:48:58;;;;;;;30.95;21.13;;;12.30;99.90;;;;;;4865570;29;20088;-88
2022/06/08 03:51:23;;;;;;;29.55;22.27;;;12.30;99.90;;;;;;4838486;29;20043;-88
2022/06/08 03:53:55;;;;;;;27.30;20.95;;;12.30;99.90;;;;;;4834150;29;20033;-88
2022/06/08 03:56:23;;;;;;;26.40;20.05;;;12.40;99.90;;;;;;4858694;29;20069;-88
2022/06/08 03:58:49;;;;;;;27.23;20.70;;;12.40;99.90;;;;;;4879941;29;20056;-88
2022/06/08 04:01:15;;;;;;;23.73;18.90;;;12.40;99.90;;;;;;4820637;29;20044;-88
2022/06/08 04:03:41;;;;;;;29.88;21.40;;;12.50;99.90;;;;;;4832466;29;20101;-88
2022/06/08 04:06:07;;;;;;;25.90;18.77;;;12.50;99.90;;;;;;4870471;29;20045;-88
2022/06/08 04:08:33;;;;;;;25.23;19.05;;;12.50;99.90;;;;;;4853501;29;20548;-88
2022/06/08 04:10:59;;;;;;;23.23;17.77;;;12.60;99.90;;;;;;4833258;29;20116;-88
2022/06/08 04:13:25;;;;;;;24.95;18.77;;;12.60;99.90;;;;;;4853160;29;20400;-88
2022/06/08 04:15:51;;;;;;;23.77;18.85;;;12.70;99.90;;;;;;4838238;29;20544;-88
2022/06/08 04:18:22;;;;;;;24.77;19.25;;;12.70;99.90;;;;;;4819256;29;20182;-88
2022/06/08 04:20:51;;;;;;;22.67;18.37;;;12.80;99.90;;;;;;4845533;29;20045;-88
2022/06/08 04:23:18;;;;;;;29.38;19.88;;;12.80;99.90;;;;;;4854869;29;20286;-88
2022/06/08 04:25:45;;;;;;;25.80;19.48;;;12.80;99.90;;;;;;4864402;29;20095;-88
2022/06/08 04:28:13;;;;;;;28.38;19.65;;;12.90;99.90;;;;;;4846709;29;20476;-88
2022/06/08 04:30:39;;;;;;;23.70;18.92;;;12.90;99.90;;;;;;4859962;29;20523;-89
2022/06/08 04:33:05;;;;;;;25.08;19.00;;;12.90;99.90;;;;;;4847198;29;20124;-88
2022/06/08 04:35:32;;;;;;;25.92;19.83;;;13.00;99.90;;;;;;4858017;29;20484;-88
2022/06/08 04:37:58;;;;;;;25.90;19.63;;;13.00;99.90;;;;;;4848989;29;20049;-88
2022/06/08 04:40:25;;;;;;;27.38;21.52;;;13.10;99.90;;;;;;4837386;29;20041;-88
2022/06/08 04:42:51;;;;;;;27.42;20.92;;;13.10;99.90;;;;;;4853005;29;20136;-88
2022/06/08 04:45:18;;;;;;;26.70;20.67;;;13.10;99.90;;;;;;4833722;29;20413;-88
2022/06/08 04:47:44;;;;;;;30.00;22.05;;;13.20;99.90;;;;;;4869531;29;20048;-89
2022/06/08 04:50:10;;;;;;;29.92;21.40;;;13.20;99.90;;;;;;4860143;29;20041;-88
2022/06/08 04:52:37;;;;;;;29.70;22.23;;;13.20;99.90;;;;;;4851142;29;20041;-89
2022/06/08 04:55:07;;;;;;;29.00;22.05;;;13.30;99.90;;;;;;4837364;29;20064;-88
2022/06/08 04:57:36;;;;;;;30.80;23.38;;;13.30;99.90;;;;;;4863600;29;20056;-89
2022/06/08 05:00:12;;;;;;;28.92;22.83;;;13.30;99.90;;;;;;4833736;29;20044;-89
2022/06/08 05:02:44;;;;;;;27.27;22.00;;;13.30;99.90;;;;;;4855716;29;20056;-88
2022/06/08 05:05:28;;;;;;;33.13;24.42;;;13.30;99.90;;;;;;4816847;29;20048;-89
2022/06/08 05:07:55;;;;;;;31.63;25.05;;;13.40;99.90;;;;;;4860598;29;20037;-88
2022/06/08 05:10:23;;;;;;;31.60;24.75;;;13.40;99.90;;;;;;4852143;29;20076;-88
2022/06/08 05:12:49;;;;;;;32.05;25.00;;;13.50;99.90;;;;;;4859559;29;20083;-89
2022/06/08 05:15:19;;;;;;;33.15;25.52;;;13.50;99.90;;;;;;4833043;29;20052;-89
2022/06/08 05:17:45;;;;;;;32.78;25.50;;;13.60;99.90;;;;;;4858500;29;20068;-89
2022/06/08 05:20:13;;;;;;;33.38;25.83;;;13.70;99.90;;;;;;4828980;29;20038;-89
2022/06/08 05:22:39;;;;;;;32.22;25.10;;;13.80;99.90;;;;;;4847733;29;20046;-89
2022/06/08 05:25:07;;;;;;;32.40;25.40;;;13.90;99.90;;;;;;4861991;29;20033;-89
2022/06/08 05:27:33;;;;;;;34.60;27.20;;;13.90;99.90;;;;;;4837728;29;20045;-89
2022/06/08 05:29:59;;;;;;;30.45;25.13;;;14.00;99.90;;;;;;4820869;29;20093;-89
2022/06/08 05:32:24;;;;;;;30.92;25.73;;;14.10;99.90;;;;;;4869584;29;20049;-89
2022/06/08 05:34:50;;;;;;;34.58;26.75;;;14.10;99.90;;;;;;4843028;29;20090;-88
2022/06/08 05:37:16;;;;;;;32.45;25.40;;;14.20;99.90;;;;;;4815288;29;20044;-89
2022/06/08 05:39:41;;;;;;;30.58;24.75;;;14.20;99.90;;;;;;4840283;29;20519;-88
2022/06/08 05:42:08;;;;;;;30.33;25.73;;;14.30;99.90;;;;;;4832833;29;20049;-89
2022/06/08 05:44:35;;;;;;;30.65;24.88;;;14.30;99.90;;;;;;4832918;29;20038;-88
2022/06/08 05:47:02;;;;;;;32.10;24.67;;;14.50;99.90;;;;;;4850549;29;20045;-89
2022/06/08 05:49:32;;;;;;;32.72;24.88;;;14.50;99.90;;;;;;4849663;29;20497;-89
2022/06/08 05:51:58;;;;;;;28.92;23.83;;;14.60;99.90;;;;;;4858366;29;20045;-89
2022/06/08 05:54:24;;;;;;;29.92;23.38;;;14.70;99.90;;;;;;4832246;29;20117;-89
2022/06/08 05:56:50;;;;;;;26.63;23.05;;;14.80;99.90;;;;;;4835353;29;20097;-89
2022/06/08 05:59:15;;;;;;;27.55;22.23;;;14.90;99.90;;;;;;4832260;29;20083;-89
2022/06/08 06:01:41;;;;;;;27.85;22.63;;;15.10;99.90;;;;;;4845905;29;20040;-89
2022/06/08 06:04:08;;;;;;;26.13;20.25;;;15.20;99.90;;;;;;4860883;29;20044;-89
2022/06/08 06:06:34;;;;;;;25.10;20.75;;;15.30;99.90;;;;;;4846505;29;20076;-89
2022/06/08 06:09:03;;;;;;;26.08;20.70;;;15.40;99.90;;;;;;4849018;29;20504;-90
2022/06/08 06:11:29;;;;;;;24.05;19.85;;;15.00;99.90;;;;;;4833730;29;20056;-87
2022/06/08 06:13:56;;;;;;;25.20;20.65;;;15.50;99.90;;;;;;4833830;29;20037;-85
2022/06/08 06:16:22;;;;;;;23.42;20.10;;;15.70;99.90;;;;;;4856823;29;20072;-87
2022/06/08 06:18:48;;;;;;;23.15;18.63;;;15.90;99.90;;;;;;4846533;29;20080;-87
2022/06/08 06:21:24;;;;;;;22.70;19.27;;;16.30;99.90;;;;;;4833607;29;20041;-87
2022/06/08 06:23:50;;;;;;;21.10;17.75;;;16.60;99.90;;;;;;4846419;29;20049;-87
2022/06/08 06:26:16;;;;;;;21.48;17.63;;;16.70;99.90;;;;;;4843218;29;20036;-87
2022/06/08 06:28:42;;;;;;;20.50;17.92;;;16.90;99.90;;;;;;4831176;29;20072;-87
2022/06/08 06:31:29;;;;;;;24.10;17.45;;;17.30;99.90;;;;;;4823268;29;20105;-87
2022/06/08 06:33:55;;;;;;;21.83;17.40;;;17.50;99.90;;;;;;4860661;29;20477;-87
2022/06/08 06:36:21;;;;;;;18.90;16.15;;;17.60;99.90;;;;;;4846607;29;20044;-87
2022/06/08 06:38:47;;;;;;;19.83;16.08;;;17.80;99.90;;;;;;4846628;29;20404;-87
2022/06/08 06:41:16;;;;;;;17.92;14.73;;;18.40;99.90;;;;;;4846611;29;20037;-87
2022/06/08 06:43:42;;;;;;;17.73;14.95;;;18.90;99.90;;;;;;4846554;29;20048;-87
2022/06/08 06:46:13;;;;;;;17.08;14.77;;;19.20;99.90;;;;;;4846773;29;20130;-87
2022/06/08 06:48:39;;;;;;;16.60;14.45;;;19.70;99.90;;;;;;4858659;29;20568;-87
2022/06/08 06:51:06;;;;;;;16.45;13.68;;;19.80;99.90;;;;;;4858406;29;20041;-87
2022/06/08 06:53:31;;;;;;;19.30;13.98;;;20.10;99.90;;;;;;4860859;29;20084;-86
2022/06/08 06:55:57;;;;;;;14.50;12.13;;;20.30;99.90;;;;;;4860917;29;20073;-86
2022/06/08 06:58:23;;;;;;;14.70;12.85;;;20.20;99.90;;;;;;4834817;29;20061;-87
2022/06/08 07:00:49;;;;;;;15.25;12.23;;;20.10;99.90;;;;;;4863061;29;20041;-87
2022/06/08 07:03:15;;;;;;;15.70;12.68;;;20.00;99.90;;;;;;4849370;29;20570;-87
2022/06/08 07:05:41;;;;;;;14.88;12.93;;;20.30;99.90;;;;;;4847722;29;20109;-87
2022/06/08 07:08:07;;;;;;;16.45;12.73;;;20.60;99.90;;;;;;4819130;29;20109;-87
2022/06/08 07:10:33;;;;;;;15.52;12.10;;;20.90;99.90;;;;;;4849063;29;20124;-87
2022/06/08 07:12:59;;;;;;;12.48;10.60;;;21.20;99.90;;;;;;4845802;29;20140;-86
2022/06/08 07:15:26;;;;;;;13.48;11.40;;;21.30;99.90;;;;;;4863761;29;20104;-87
2022/06/08 07:17:53;;;;;;;13.57;10.63;;;21.60;99.90;;;;;;4882622;29;20107;-87
2022/06/08 07:20:19;;;;;;;13.63;10.18;;;21.70;99.90;;;;;;4849794;29;20501;-87
2022/06/08 07:22:46;;;;;;;11.30;8.93;;;21.60;99.90;;;;;;4849265;29;20034;-87
2022/06/08 07:25:14;;;;;;;12.05;9.95;;;21.80;99.90;;;;;;4847305;29;20065;-87
2022/06/08 07:27:41;;;;;;;11.98;9.63;;;22.00;99.90;;;;;;4845335;29;20037;-87
2022/06/08 07:30:08;;;;;;;11.80;9.40;;;22.00;99.90;;;;;;4845608;29;20444;-86
2022/06/08 07:32:34;;;;;;;12.27;9.10;;;22.10;99.90;;;;;;4860832;29;20100;-86
2022/06/08 07:35:02;;;;;;;11.60;9.52;;;22.10;99.90;;;;;;4847452;29;20123;-86
2022/06/08 07:37:28;;;;;;;10.45;8.55;;;22.20;99.90;;;;;;4861236;29;20102;-86
2022/06/08 07:39:54;;;;;;;11.60;8.85;;;22.30;99.90;;;;;;4844462;29;20052;-86
2022/06/08 07:42:21;;;;;;;11.10;9.13;;;22.10;99.90;;;;;;4849519;29;20048;-86
2022/06/08 07:44:47;;;;;;;11.43;8.27;;;22.20;99.90;;;;;;4847818;29;20044;-85
2022/06/08 07:47:13;;;;;;;10.05;8.15;;;22.30;99.90;;;;;;4864816;29;20072;-85
2022/06/08 07:49:45;;;;;;;10.00;7.90;;;22.40;99.90;;;;;;4884128;29;20076;-85
2022/06/08 07:52:17;;;;;;;8.57;6.30;;;22.60;99.90;;;;;;4857614;29;20101;-85
2022/06/08 07:54:45;;;;;;;9.23;6.72;;;22.60;99.90;;;;;;4848325;29;20108;-85
2022/06/08 07:57:23;;;;;;;8.48;5.50;;;22.50;99.90;;;;;;4869779;29;20049;-85
2022/06/08 07:59:49;;;;;;;9.48;5.90;;;22.40;99.90;;;;;;4864893;29;20084;-85
2022/06/08 08:02:15;;;;;;;7.55;5.70;;;22.40;99.90;;;;;;4835312;29;20105;-85
2022/06/08 08:04:42;;;;;;;8.23;6.10;;;22.40;99.90;;;;;;4847647;29;20041;-85
2022/06/08 08:07:08;;;;;;;8.13;6.13;;;22.40;99.90;;;;;;4853393;29;20052;-85
2022/06/08 08:09:34;;;;;;;10.80;6.72;;;22.40;99.90;;;;;;4852416;29;20036;-85
2022/06/08 08:12:01;;;;;;;8.05;5.85;;;22.40;99.90;;;;;;4847678;29;20069;-85
2022/06/08 08:14:27;;;;;;;8.60;5.18;;;22.60;99.90;;;;;;4851261;29;20080;-86
2022/06/08 08:16:53;;;;;;;9.45;5.13;;;22.70;99.90;;;;;;4849527;29;20412;-85
2022/06/08 08:19:22;;;;;;;8.52;5.20;;;22.90;99.90;;;;;;4863485;29;20048;-87
2022/06/08 08:21:48;;;;;;;9.32;5.28;;;22.80;99.90;;;;;;4844950;29;20037;-85
2022/06/08 08:24:15;;;;;;;8.68;5.07;;;22.90;99.90;;;;;;4872075;29;20061;-85
2022/06/08 08:26:43;;;;;;;7.45;5.20;;;22.90;99.90;;;;;;4847883;29;20129;-85
2022/06/08 08:29:09;;;;;;;9.18;5.40;;;22.90;99.90;;;;;;4862035;29;20045;-85
2022/06/08 08:31:37;;;;;;;7.40;4.35;;;23.00;99.90;;;;;;4846178;29;20049;-84
2022/06/08 08:34:03;;;;;;;7.72;4.60;;;23.10;99.90;;;;;;4867964;29;20045;-84
2022/06/08 08:36:28;;;;;;;6.93;4.32;;;23.30;99.90;;;;;;4845683;29;20047;-86
2022/06/08 08:38:54;;;;;;;6.60;3.80;;;23.40;99.90;;;;;;4853710;29;20049;-86
2022/06/08 08:44:20;;;;;;;7.68;4.50;;;23.30;99.00;;;;;;4864601;29;20513;-86
2022/06/08 08:47:12;;;;;;;6.45;4.22;;;23.10;99.90;;;;;;4851707;29;20041;-86
2022/06/08 08:49:43;;;;;;;7.22;3.25;;;23.40;99.90;;;;;;4838745;29;20164;-86
2022/06/08 08:52:13;;;;;;;;;;;23.60;99.90;;;;;;4861933;29;20049;-86
2022/06/08 08:54:46;;;;;;;4.82;2.30;;;23.90;99.90;;;;;;4852120;29;20461;-86
2022/06/08 08:57:12;;;;;;;4.72;2.38;;;24.00;99.20;;;;;;4866413;29;20051;-86
2022/06/08 08:59:43;;;;;;;6.30;2.90;;;24.00;96.80;;;;;;4866072;29;20052;-85
2022/06/08 09:02:14;;;;;;;6.90;2.70;;;23.90;97.30;;;;;;4862156;29;20052;-86
2022/06/08 09:04:47;;;;;;;6.10;2.95;;;23.90;98.60;;;;;;4860217;29;20460;-86
2022/06/08 09:07:18;;;;;;;6.15;2.53;;;23.90;98.80;;;;;;4848233;29;20037;-86
2022/06/08 09:09:45;;;;;;;4.85;2.08;;;23.90;99.90;;;;;;4865949;29;20458;-86
2022/06/08 09:12:19;;;;;;;4.65;2.00;;;24.00;99.90;;;;;;4864838;29;20080;-85
2022/06/08 09:14:54;;;;;;;6.78;2.50;;;24.20;97.70;;;;;;4870104;29;20047;-86
2022/06/08 09:17:57;;;;;;;6.07;2.13;;;24.20;95.70;;;;;;4851510;29;20048;-86
2022/06/08 09:20:33;;;;;;;5.90;2.13;;;23.90;95.50;;;;;;4863050;29;20049;-86
2022/06/08 09:23:20;;;;;;;5.30;2.30;;;23.60;98.40;;;;;;4851372;29;20089;-86
2022/06/08 09:25:59;;;;;;;6.65;2.80;;;23.40;99.10;;;;;;4852622;29;20100;-85
2022/06/08 09:28:28;;;;;;;6.78;3.60;;;23.30;99.90;;;;;;4863055;29;20033;-86
2022/06/08 09:30:54;;;;;;;5.97;3.55;;;23.40;99.80;;;;;;4847691;29;20093;-86
2022/06/08 09:33:32;;;;;;;6.78;3.20;;;23.30;99.90;;;;;;4830614;29;20049;-86
2022/06/08 09:36:24;;;;;;;5.75;3.60;;;23.60;99.90;;;;;;4862970;29;20045;-85
2022/06/08 09:38:50;;;;;;;7.10;3.97;;;23.90;99.10;;;;;;4853752;29;20408;-86
2022/06/08 09:41:36;;;;;;;6.10;3.10;;;24.00;99.90;;;;;;4840258;29;20033;-86
2022/06/08 09:44:22;;;;;;;7.25;3.00;;;24.00;96.00;;;;;;4854111;29;20089;-86
2022/06/08 09:53:10;;;;;;;7.90;3.28;;;23.70;99.90;;;;;;4872941;29;20049;-86
2022/06/08 09:55:51;;;;;;;7.20;2.75;;;24.10;99.90;;;;;;4854332;29;20113;-86
2022/06/08 09:58:38;;;;;;;5.78;3.00;;;24.30;99.50;;;;;;4853635;29;20057;-86
2022/06/08 10:01:10;;;;;;;6.55;2.97;;;24.20;96.40;;;;;;4856257;29;20120;-86
2022/06/08 10:03:57;;;;;;;5.28;2.60;;;23.80;98.70;;;;;;4854305;29;20090;-86
2022/06/08 10:06:44;;;;;;;6.70;3.28;;;23.80;99.90;;;;;;4851697;29;20066;-86
2022/06/08 10:09:44;;;;;;;6.82;3.10;;;23.80;98.40;;;;;;4856504;29;20040;-86
2022/06/08 10:12:25;;;;;;;7.30;3.00;;;23.90;99.60;;;;;;4813512;29;20052;-86
2022/06/08 10:14:55;;;;;;;6.60;3.30;;;24.00;99.90;;;;;;4862775;29;20052;-86
2022/06/08 10:17:32;;;;;;;9.25;3.60;;;24.30;99.70;;;;;;4862380;29;20044;-86
2022/06/08 10:20:16;;;;;;;9.32;3.75;;;24.20;95.10;;;;;;4856578;29;20523;-86
2022/06/08 10:22:53;;;;;;;6.25;3.22;;;23.70;96.70;;;;;;4861529;29;20097;-87
2022/06/08 10:25:33;;;;;;;7.28;2.85;;;23.60;99.90;;;;;;4838492;29;20128;-87
2022/06/08 10:28:04;;;;;;;9.65;3.40;;;23.70;98.40;;;;;;4845478;29;20037;-87
2022/06/08 10:30:45;;;;;;;6.70;2.97;;;23.90;98.10;;;;;;4843561;29;20044;-87
2022/06/08 10:33:31;;;;;;;6.23;2.83;;;23.90;98.60;;;;;;4848187;29;20493;-87
2022/06/08 10:35:58;;;;;;;6.60;3.08;;;24.00;99.00;;;;;;4837007;29;20053;-86
2022/06/08 10:38:32;;;;;;;5.82;3.20;;;24.10;98.10;;;;;;4846981;29;20055;-86
2022/06/08 10:44:31;;;;;;;7.18;2.90;;;24.30;96.30;;;;;;4853073;29;20044;-87
2022/06/08 10:47:08;;;;;;;8.65;3.80;;;24.00;96.50;;;;;;4842420;29;20045;-87
2022/06/08 10:49:33;;;;;;;7.85;3.40;;;24.00;99.90;;;;;;4851779;29;20158;-87
2022/06/08 10:52:17;;;;;;;5.95;2.78;;;24.20;99.70;;;;;;4862379;29;20051;-86
2022/06/08 10:54:54;;;;;;;5.53;2.75;;;24.30;99.40;;;;;;4849499;29;20144;-85
2022/06/08 10:57:35;;;;;;;5.68;3.03;;;24.30;98.90;;;;;;4873220;29;20045;-88
2022/06/08 11:00:19;;;;;;;5.73;2.87;;;24.30;97.10;;;;;;4857856;29;20088;-89
2022/06/08 11:02:51;;;;;;;7.13;3.30;;;24.20;96.40;;;;;;4859407;29;20505;-89
2022/06/08 11:05:42;;;;;;;7.35;3.08;;;24.20;96.80;;;;;;4851341;29;20104;-88
2022/06/08 11:08:09;;;;;;;8.63;3.07;;;24.40;98.80;;;;;;4857579;29;20060;-87
2022/06/08 11:10:44;;;;;;;7.95;2.70;;;24.60;97.40;;;;;;4866553;29;20857;-87
2022/06/08 11:13:35;;;;;;;8.57;3.03;;;24.80;98.20;;;;;;4862144;29;20504;-87
2022/06/08 11:16:27;;;;;;;7.38;2.78;;;25.00;99.10;;;;;;4836593;29;20054;-87
2022/06/08 11:19:11;;;;;;;7.18;3.10;;;25.20;97.00;;;;;;4844737;29;20085;-87
2022/06/08 11:21:50;;;;;;;6.68;2.83;;;25.10;92.50;;;;;;4864391;29;20044;-89
2022/06/08 11:24:30;;;;;;;6.60;2.88;;;25.00;96.30;;;;;;4849922;29;20560;-87
2022/06/08 11:27:11;;;;;;;10.48;3.00;;;25.00;93.70;;;;;;4849267;29;20068;-88
2022/06/08 11:29:59;;;;;;;5.65;2.60;;;24.90;94.70;;;;;;4884831;29;20053;-88
2022/06/08 11:32:32;;;;;;;6.07;2.80;;;25.00;92.50;;;;;;4860157;29;20044;-87
2022/06/08 11:35:05;;;;;;;5.82;2.55;;;25.00;92.20;;;;;;4852949;29;20270;-87
2022/06/08 11:37:57;;;;;;;6.65;2.45;;;24.80;91.50;;;;;;4854662;29;20129;-87
2022/06/08 11:40:32;;;;;;;5.68;2.22;;;24.60;94.50;;;;;;4859589;29;20045;-87
2022/06/08 11:43:15;;;;;;;4.60;2.00;;;24.60;97.10;;;;;;4862455;29;20047;-87
2022/06/08 11:45:54;;;;;;;6.15;2.13;;;24.70;91.30;;;;;;4855953;29;20037;-87
2022/06/08 11:48:29;;;;;;;6.57;2.10;;;24.50;94.30;;;;;;4878047;29;20044;-86
2022/06/08 11:50:58;;;;;;;5.28;2.03;;;24.30;94.30;;;;;;4842474;29;20045;-85
2022/06/08 11:53:29;;;;;;;5.15;1.83;;;24.20;95.00;;;;;;4857555;29;20136;-86
2022/06/08 11:55:58;;;;;;;6.38;2.10;;;24.10;95.50;;;;;;4856748;29;20064;-86
2022/06/08 11:58:28;;;;;;;6.55;2.00;;;23.90;93.00;;;;;;4853806;29;20040;-87
2022/06/08 12:00:58;;;;;;;5.53;2.22;;;23.70;94.80;;;;;;4875574;29;20041;-86
2022/06/08 12:03:38;;;;;;;5.00;2.00;;;23.30;96.40;;;;;;4839844;29;20035;-86
2022/06/08 12:06:24;;;;;;;5.70;2.20;;;23.20;96.30;;;;;;4857412;29;20049;-86
2022/06/08 12:08:58;;;;;;;6.28;2.30;;;23.00;94.10;;;;;;4854626;29;20059;-85
2022/06/08 12:11:28;;;;;;;4.65;2.20;;;22.80;94.70;;;;;;4860921;29;20064;-86
2022/06/08 12:14:49;;;;;;;6.50;2.30;;;22.50;97.10;;;;;;4867920;29;20451;-86
2022/06/08 12:17:15;;;;;;;6.85;1.85;;;22.20;99.90;;;;;;4839576;29;20046;-85
2022/06/08 12:19:48;;;;;;;7.15;1.80;;;21.80;99.90;;;;;;4868560;29;20103;-85
2022/06/08 12:22:19;;;;;;;13.23;2.95;;;21.50;99.90;;;;;;4850110;29;20059;-85
2022/06/08 12:25:14;;;;;;;9.75;2.17;;;21.20;99.90;;;;;;4849738;29;20080;-86
2022/06/08 12:27:44;;;;;;;7.95;2.10;;;20.60;99.90;;;;;;4861088;29;20045;-87
2022/06/08 12:30:27;;;;;;;6.55;1.50;;;20.20;99.90;;;;;;4845670;29;20120;-87
2022/06/08 12:32:59;;;;;;;7.82;2.03;;;19.70;99.90;;;;;;4845153;29;20049;-87
2022/06/08 12:35:29;;;;;;;9.63;2.30;;;19.50;99.90;;;;;;4860274;29;20502;-87
2022/06/08 12:38:26;;;;;;;7.88;2.30;;;19.30;99.90;;;;;;4866442;29;20645;-87
2022/06/08 12:41:14;;;;;;;8.32;2.88;;;19.20;99.90;;;;;;4836910;29;20395;-87
2022/06/08 12:43:42;;;;;;;7.20;2.78;;;19.10;99.90;;;;;;4847666;29;20390;-87
2022/06/08 12:46:15;;;;;;;6.82;2.58;;;19.10;99.90;;;;;;4844752;29;20038;-87
2022/06/08 12:49:01;;;;;;;8.85;2.75;;;19.00;99.90;;;;;;4856225;29;20076;-87
2022/06/08 12:51:32;;;;;;;7.57;2.50;;;19.00;99.90;;;;;;4859222;29;20049;-87
2022/06/08 12:54:01;;;;;;;8.40;2.70;;;19.00;99.90;;;;;;4873256;29;20128;-87
2022/06/08 12:56:28;;;;;;;6.63;2.70;;;19.00;99.90;;;;;;4850705;29;20076;-88
2022/06/08 12:58:55;;;;;;;7.30;2.58;;;18.90;99.90;;;;;;4846435;29;20093;-88
2022/06/08 13:01:22;;;;;;;7.10;2.50;;;18.90;99.90;;;;;;4847131;29;20041;-88
2022/06/08 13:03:49;;;;;;;7.40;2.40;;;18.90;99.90;;;;;;4846779;29;20065;-88
2022/06/08 13:06:15;;;;;;;7.28;2.35;;;18.80;99.90;;;;;;4842849;29;20038;-88
2022/06/08 13:08:42;;;;;;;7.53;2.42;;;18.80;99.90;;;;;;4861614;29;20045;-88
2022/06/08 13:11:14;;;;;;;8.85;2.60;;;18.70;99.90;;;;;;4852317;29;20049;-88
2022/06/08 13:13:41;;;;;;;8.48;2.67;;;18.60;99.90;;;;;;4867124;29;20106;-88
2022/06/08 13:16:14;;;;;;;8.13;2.33;;;18.60;99.90;;;;;;4851030;29;20139;-88
2022/06/08 13:18:41;;;;;;;8.95;2.90;;;18.70;99.90;;;;;;4843841;29;20045;-88
2022/06/08 13:21:07;;;;;;;8.40;2.67;;;18.80;99.90;;;;;;4850379;29;20052;-87